createdAt,value
2023-02-24T00:09:09.356Z,1009.37
2023-02-24T00:19:09.454Z,1009.24
2023-02-24T00:29:09.703Z,1009.15
2023-02-24T00:39:10.005Z,1009.06
2023-02-24T00:49:10.091Z,1009.00
2023-02-24T00:59:10.129Z,1008.92
2023-02-24T01:09:10.466Z,1008.94
2023-02-24T01:19:10.524Z,1008.87
2023-02-24T01:29:11.193Z,1008.88
2023-02-24T01:39:11.016Z,1008.86
2023-02-24T01:49:11.307Z,1008.79
2023-02-24T01:59:11.350Z,1008.68
2023-02-24T02:09:11.690Z,1008.61
2023-02-24T02:19:22.825Z,1008.51
2023-02-24T02:29:11.871Z,1008.44
2023-02-24T02:39:12.170Z,1008.42
2023-02-24T02:49:13.946Z,1008.50
2023-02-24T02:59:12.388Z,1008.48
2023-02-24T03:09:12.614Z,1008.57
2023-02-24T03:19:12.863Z,1008.42
2023-02-24T03:29:13.098Z,1008.27
2023-02-24T03:39:13.461Z,1008.23
2023-02-24T03:49:13.527Z,1008.11
2023-02-24T03:59:13.814Z,1008.08
2023-02-24T04:09:13.858Z,1008.15
2023-02-24T04:19:14.221Z,1007.96
2023-02-24T04:29:14.209Z,1007.80
2023-02-24T04:39:14.463Z,1007.87
2023-02-24T04:49:14.685Z,1007.90
2023-02-24T04:59:15.021Z,1007.71
2023-02-24T05:09:15.071Z,1007.75
2023-02-24T05:19:15.401Z,1007.63
2023-02-24T05:29:15.543Z,1007.53
2023-02-24T05:39:15.890Z,1007.38
2023-02-24T05:49:15.987Z,1007.44
2023-02-24T05:59:16.138Z,1007.41
2023-02-24T06:09:16.171Z,1007.35
2023-02-24T06:19:17.642Z,1007.47
2023-02-24T06:29:16.660Z,1007.57
2023-02-24T06:39:16.712Z,1007.55
2023-02-24T06:49:16.963Z,1007.59
2023-02-24T06:59:17.222Z,1007.71
2023-02-24T07:09:17.447Z,1007.62
2023-02-24T07:19:17.688Z,1007.47
2023-02-24T07:29:17.937Z,1007.43
2023-02-24T07:39:18.390Z,1007.26
2023-02-24T07:49:18.419Z,1007.11
2023-02-24T07:59:18.664Z,1006.99
2023-02-24T08:09:18.904Z,1006.81
2023-02-24T08:19:19.242Z,1006.70
2023-02-24T08:29:19.268Z,1006.51
2023-02-24T08:39:19.513Z,1006.30
2023-02-24T08:49:19.962Z,1006.14
2023-02-24T08:59:20.091Z,1006.00
2023-02-24T09:09:20.132Z,1005.85
2023-02-24T09:19:20.472Z,1005.69
2023-02-24T09:29:20.544Z,1005.57
2023-02-24T09:39:20.623Z,1005.48
2023-02-24T09:49:20.856Z,1005.40
2023-02-24T09:59:22.118Z,1005.33
2023-02-24T10:09:21.353Z,1005.24
2023-02-24T10:19:21.671Z,1005.15
2023-02-24T10:29:22.634Z,1005.12
2023-02-24T10:39:21.944Z,1004.92
2023-02-24T10:49:22.173Z,1004.98
2023-02-24T10:59:22.528Z,1004.61
2023-02-24T11:09:22.688Z,1004.55
2023-02-24T11:19:22.779Z,1004.21
2023-02-24T11:29:22.820Z,1004.03
2023-02-24T11:39:23.162Z,1003.87
2023-02-24T11:49:23.185Z,1003.73
2023-02-24T11:59:23.531Z,1003.57
2023-02-24T12:09:23.563Z,1003.45
2023-02-24T12:19:23.961Z,1003.29
2023-02-24T12:29:24.026Z,1003.20
2023-02-24T12:39:24.044Z,1003.09
2023-02-24T12:49:24.354Z,1003.00
2023-02-24T12:59:24.420Z,1002.84
2023-02-24T13:09:24.458Z,1002.65
2023-02-24T13:19:24.813Z,1002.48
2023-02-24T13:29:24.837Z,1002.37
2023-02-24T13:39:27.549Z,1002.17
2023-02-24T13:49:25.206Z,1001.98
2023-02-24T13:59:26.508Z,1001.88
2023-02-24T14:09:25.545Z,1001.71
2023-02-24T14:19:25.809Z,1001.58
2023-02-24T14:29:26.036Z,1001.48
2023-02-24T14:39:26.329Z,1001.41
2023-02-24T14:49:26.401Z,1001.31
2023-02-24T14:59:26.770Z,1001.21
2023-02-24T15:09:26.850Z,1001.14
2023-02-24T15:19:27.171Z,1001.04
2023-02-24T15:29:27.219Z,1000.87
2023-02-24T15:39:27.509Z,1000.85
2023-02-24T15:49:27.568Z,1000.91
2023-02-24T15:59:27.885Z,1000.79
2023-02-24T16:09:27.946Z,1000.71
2023-02-24T16:19:28.245Z,1000.74
2023-02-24T16:29:28.477Z,1000.83
2023-02-24T16:39:28.439Z,1000.88
2023-02-24T16:49:28.737Z,1001.05
2023-02-24T16:59:28.772Z,1001.25
2023-02-24T17:09:28.811Z,1001.06
2023-02-24T17:19:29.355Z,1001.05
2023-02-24T17:29:29.216Z,1001.12
2023-02-24T17:39:29.735Z,1001.14
2023-02-24T17:49:29.687Z,1001.51
2023-02-24T17:59:29.843Z,1001.88
2023-02-24T18:09:29.877Z,1002.00
2023-02-24T18:19:30.309Z,1002.23
2023-02-24T18:29:30.398Z,1002.30
2023-02-24T18:39:30.499Z,1002.31
2023-02-24T18:49:30.612Z,1001.97
2023-02-24T18:59:30.608Z,1001.70
2023-02-24T19:09:31.661Z,1001.50
2023-02-24T19:19:31.066Z,1001.16
2023-02-24T19:29:31.227Z,1001.25
2023-02-24T19:39:31.505Z,1001.29
2023-02-24T19:49:31.455Z,1001.66
2023-02-24T19:59:32.489Z,1001.70
2023-02-24T20:09:31.704Z,1001.51
2023-02-24T20:19:32.068Z,1001.44
2023-02-24T20:29:32.044Z,1001.40
2023-02-24T20:39:32.316Z,1001.59
2023-02-24T20:49:32.314Z,1001.99
2023-02-24T20:59:44.006Z,1001.96
2023-02-24T21:09:33.483Z,1001.83
2023-02-24T21:19:32.525Z,1001.67
2023-02-24T21:29:32.607Z,1001.56
2023-02-24T21:39:32.732Z,1001.43
2023-02-24T21:49:32.967Z,1001.09
2023-02-24T21:59:32.887Z,1001.66
2023-02-24T22:09:33.124Z,1001.33
2023-02-24T22:19:33.465Z,1001.17
2023-02-24T22:29:33.514Z,1001.22
2023-02-24T22:39:34.923Z,1001.14
2023-02-24T22:49:33.956Z,1001.56
2023-02-24T22:59:34.224Z,1001.79
2023-02-24T23:09:34.446Z,1001.63
2023-02-24T23:19:34.805Z,1001.70
2023-02-24T23:29:34.853Z,1001.21
2023-02-24T23:39:35.173Z,1001.88
2023-02-24T23:49:47.570Z,1001.64
2023-02-24T23:59:36.279Z,1002.52
